sensor_id;sensor_type;location;lat;lon;timestamp;temperature;humidity
10702;DHT22;5402;50.004;8.246;2024-01-07T00:01:46;4.60;99.90
10702;DHT22;5402;50.004;8.246;2024-01-07T00:04:14;4.70;99.90
10702;DHT22;5402;50.004;8.246;2024-01-07T00:06:42;4.80;99.90
10702;DHT22;5402;50.004;8.246;2024-01-07T00:09:10;4.60;99.90
10702;DHT22;5402;50.004;8.246;2024-01-07T00:11:38;4.60;99.90
10702;DHT22;5402;50.004;8.246;2024-01-07T00:14:05;4.50;99.90
10702;DHT22;5402;50.004;8.246;2024-01-07T00:16:33;4.50;99.90
10702;DHT22;5402;50.004;8.246;2024-01-07T00:19:00;5.20;99.90
10702;DHT22;5402;50.004;8.246;2024-01-07T00:21:27;4.50;99.90
10702;DHT22;5402;50.004;8.246;2024-01-07T00:23:57;4.70;99.90
10702;DHT22;5402;50.004;8.246;2024-01-07T00:26:24;4.70;99.90
10702;DHT22;5402;50.004;8.246;2024-01-07T00:28:51;4.50;99.90
10702;DHT22;5402;50.004;8.246;2024-01-07T00:31:18;4.40;99.90
10702;DHT22;5402;50.004;8.246;2024-01-07T00:33:45;4.40;99.90
10702;DHT22;5402;50.004;8.246;2024-01-07T00:36:12;4.50;99.90
10702;DHT22;5402;50.004;8.246;2024-01-07T00:38:39;4.40;99.90
10702;DHT22;5402;50.004;8.246;2024-01-07T00:41:07;5.20;99.90
10702;DHT22;5402;50.004;8.246;2024-01-07T00:43:38;4.60;99.90
10702;DHT22;5402;50.004;8.246;2024-01-07T00:46:06;4.50;99.90
10702;DHT22;5402;50.004;8.246;2024-01-07T00:48:33;4.40;99.90
10702;DHT22;5402;50.004;8.246;2024-01-07T00:50:58;4.30;99.90
10702;DHT22;5402;50.004;8.246;2024-01-07T00:53:25;4.30;99.90
10702;DHT22;5402;50.004;8.246;2024-01-07T00:55:52;4.40;99.90
10702;DHT22;5402;50.004;8.246;2024-01-07T00:58:23;4.50;99.90
10702;DHT22;5402;50.004;8.246;2024-01-07T01:00:49;4.50;99.90
10702;DHT22;5402;50.004;8.246;2024-01-07T01:03:19;4.50;99.90
10702;DHT22;5402;50.004;8.246;2024-01-07T01:05:48;4.50;99.90
10702;DHT22;5402;50.004;8.246;2024-01-07T01:08:15;4.50;99.90
10702;DHT22;5402;50.004;8.246;2024-01-07T01:10:42;4.60;99.90
10702;DHT22;5402;50.004;8.246;2024-01-07T01:13:09;4.50;99.90
10702;DHT22;5402;50.004;8.246;2024-01-07T01:15:37;4.50;99.90
10702;DHT22;5402;50.004;8.246;2024-01-07T01:18:05;4.50;99.90
10702;DHT22;5402;50.004;8.246;2024-01-07T01:20:31;4.40;99.90
10702;DHT22;5402;50.004;8.246;2024-01-07T01:22:58;4.80;99.90
10702;DHT22;5402;50.004;8.246;2024-01-07T01:25:25;4.40;99.90
10702;DHT22;5402;50.004;8.246;2024-01-07T01:27:52;4.50;99.90
10702;DHT22;5402;50.004;8.246;2024-01-07T01:30:21;4.70;99.90
10702;DHT22;5402;50.004;8.246;2024-01-07T01:32:49;5.60;99.90
10702;DHT22;5402;50.004;8.246;2024-01-07T01:35:16;4.50;99.90
10702;DHT22;5402;50.004;8.246;2024-01-07T01:37:43;5.10;99.90
10702;DHT22;5402;50.004;8.246;2024-01-07T01:40:10;4.50;99.90
10702;DHT22;5402;50.004;8.246;2024-01-07T01:42:37;4.50;99.90
10702;DHT22;5402;50.004;8.246;2024-01-07T01:45:05;4.50;99.90
10702;DHT22;5402;50.004;8.246;2024-01-07T01:47:32;4.50;99.90
10702;DHT22;5402;50.004;8.246;2024-01-07T01:50:00;4.40;99.90
10702;DHT22;5402;50.004;8.246;2024-01-07T01:52:29;4.50;99.90
10702;DHT22;5402;50.004;8.246;2024-01-07T01:54:56;4.50;99.90
10702;DHT22;5402;50.004;8.246;2024-01-07T01:57:32;4.50;99.90
10702;DHT22;5402;50.004;8.246;2024-01-07T02:00:00;4.50;99.90
10702;DHT22;5402;50.004;8.246;2024-01-07T02:02:29;4.50;99.90
10702;DHT22;5402;50.004;8.246;2024-01-07T02:04:57;4.50;99.90
10702;DHT22;5402;50.004;8.246;2024-01-07T02:07:26;4.40;99.90
10702;DHT22;5402;50.004;8.246;2024-01-07T02:09:54;5.20;99.90
10702;DHT22;5402;50.004;8.246;2024-01-07T02:12:22;4.50;99.90
10702;DHT22;5402;50.004;8.246;2024-01-07T02:14:51;4.50;99.90
10702;DHT22;5402;50.004;8.246;2024-01-07T02:17:20;4.50;99.90
10702;DHT22;5402;50.004;8.246;2024-01-07T02:19:46;4.50;99.90
10702;DHT22;5402;50.004;8.246;2024-01-07T02:22:13;4.60;99.90
10702;DHT22;5402;50.004;8.246;2024-01-07T02:24:41;4.70;99.90
10702;DHT22;5402;50.004;8.246;2024-01-07T02:27:08;4.50;99.90
10702;DHT22;5402;50.004;8.246;2024-01-07T02:29:35;4.70;99.90
10702;DHT22;5402;50.004;8.246;2024-01-07T02:32:02;4.50;99.90
10702;DHT22;5402;50.004;8.246;2024-01-07T02:34:31;4.50;99.90
10702;DHT22;5402;50.004;8.246;2024-01-07T02:36:58;4.70;99.90
10702;DHT22;5402;50.004;8.246;2024-01-07T02:39:24;4.50;99.90
10702;DHT22;5402;50.004;8.246;2024-01-07T02:41:53;4.90;99.90
10702;DHT22;5402;50.004;8.246;2024-01-07T02:44:19;4.50;99.90
10702;DHT22;5402;50.004;8.246;2024-01-07T02:46:46;4.50;99.90
10702;DHT22;5402;50.004;8.246;2024-01-07T02:49:13;4.60;99.90
10702;DHT22;5402;50.004;8.246;2024-01-07T02:51:40;4.50;99.90
10702;DHT22;5402;50.004;8.246;2024-01-07T02:54:09;4.60;99.90
10702;DHT22;5402;50.004;8.246;2024-01-07T02:56:36;5.00;99.90
10702;DHT22;5402;50.004;8.246;2024-01-07T02:59:04;4.50;99.90
10702;DHT22;5402;50.004;8.246;2024-01-07T03:01:31;4.60;99.90
10702;DHT22;5402;50.004;8.246;2024-01-07T03:04:05;4.60;99.90
10702;DHT22;5402;50.004;8.246;2024-01-07T03:06:32;5.10;99.90
10702;DHT22;5402;50.004;8.246;2024-01-07T03:08:59;4.50;99.90
10702;DHT22;5402;50.004;8.246;2024-01-07T03:11:26;4.70;99.90
10702;DHT22;5402;50.004;8.246;2024-01-07T03:13:52;4.70;99.90
10702;DHT22;5402;50.004;8.246;2024-01-07T03:16:24;4.60;99.90
10702;DHT22;5402;50.004;8.246;2024-01-07T03:18:52;4.70;99.90
10702;DHT22;5402;50.004;8.246;2024-01-07T03:21:21;4.60;99.90
10702;DHT22;5402;50.004;8.246;2024-01-07T03:23:50;4.90;99.90
10702;DHT22;5402;50.004;8.246;2024-01-07T03:26:18;4.70;99.90
10702;DHT22;5402;50.004;8.246;2024-01-07T03:28:45;4.70;99.90
10702;DHT22;5402;50.004;8.246;2024-01-07T03:31:13;4.80;99.90
10702;DHT22;5402;50.004;8.246;2024-01-07T03:33:44;4.60;99.90
10702;DHT22;5402;50.004;8.246;2024-01-07T03:36:12;5.10;99.90
10702;DHT22;5402;50.004;8.246;2024-01-07T03:38:40;4.60;99.90
10702;DHT22;5402;50.004;8.246;2024-01-07T03:41:07;4.80;99.90
10702;DHT22;5402;50.004;8.246;2024-01-07T03:43:35;4.80;99.90
10702;DHT22;5402;50.004;8.246;2024-01-07T03:46:01;4.70;99.90
10702;DHT22;5402;50.004;8.246;2024-01-07T03:48:28;4.60;99.90
10702;DHT22;5402;50.004;8.246;2024-01-07T03:50:56;4.60;99.90
10702;DHT22;5402;50.004;8.246;2024-01-07T03:53:23;4.60;99.90
10702;DHT22;5402;50.004;8.246;2024-01-07T03:55:50;4.90;99.90
10702;DHT22;5402;50.004;8.246;2024-01-07T03:58:19;4.60;99.90
10702;DHT22;5402;50.004;8.246;2024-01-07T04:00:46;4.50;99.90
10702;DHT22;5402;50.004;8.246;2024-01-07T04:03:16;4.70;99.90
10702;DHT22;5402;50.004;8.246;2024-01-07T04:05:43;4.50;99.90
10702;DHT22;5402;50.004;8.246;2024-01-07T04:08:15;4.50;99.90
10702;DHT22;5402;50.004;8.246;2024-01-07T04:10:42;4.40;99.90
10702;DHT22;5402;50.004;8.246;2024-01-07T04:13:09;4.50;99.90
10702;DHT22;5402;50.004;8.246;2024-01-07T04:15:37;4.40;99.90
10702;DHT22;5402;50.004;8.246;2024-01-07T04:18:05;4.40;99.90
10702;DHT22;5402;50.004;8.246;2024-01-07T04:20:31;4.40;99.90
10702;DHT22;5402;50.004;8.246;2024-01-07T04:22:58;4.50;99.90
10702;DHT22;5402;50.004;8.246;2024-01-07T04:25:27;4.60;99.90
10702;DHT22;5402;50.004;8.246;2024-01-07T04:27:53;4.50;99.90
10702;DHT22;5402;50.004;8.246;2024-01-07T04:30:20;5.00;99.90
10702;DHT22;5402;50.004;8.246;2024-01-07T04:32:47;4.90;99.90
10702;DHT22;5402;50.004;8.246;2024-01-07T04:35:14;4.60;99.90
10702;DHT22;5402;50.004;8.246;2024-01-07T04:37:42;4.60;99.90
10702;DHT22;5402;50.004;8.246;2024-01-07T04:40:11;4.50;99.90
10702;DHT22;5402;50.004;8.246;2024-01-07T04:42:40;4.50;99.90
10702;DHT22;5402;50.004;8.246;2024-01-07T04:45:07;4.50;99.90
10702;DHT22;5402;50.004;8.246;2024-01-07T04:47:33;4.50;99.90
10702;DHT22;5402;50.004;8.246;2024-01-07T04:50:00;4.70;99.90
10702;DHT22;5402;50.004;8.246;2024-01-07T04:52:27;4.50;99.90
10702;DHT22;5402;50.004;8.246;2024-01-07T04:54:54;4.80;99.90
10702;DHT22;5402;50.004;8.246;2024-01-07T04:57:22;4.60;99.90
10702;DHT22;5402;50.004;8.246;2024-01-07T04:59:54;4.60;99.90
10702;DHT22;5402;50.004;8.246;2024-01-07T05:02:21;4.60;99.90
10702;DHT22;5402;50.004;8.246;2024-01-07T05:04:48;4.60;99.90
10702;DHT22;5402;50.004;8.246;2024-01-07T05:07:15;4.50;99.90
10702;DHT22;5402;50.004;8.246;2024-01-07T05:09:42;4.50;99.90
10702;DHT22;5402;50.004;8.246;2024-01-07T05:12:09;4.50;99.90
10702;DHT22;5402;50.004;8.246;2024-01-07T05:14:36;4.70;99.90
10702;DHT22;5402;50.004;8.246;2024-01-07T05:17:04;4.50;99.90
10702;DHT22;5402;50.004;8.246;2024-01-07T05:19:32;4.50;99.90
10702;DHT22;5402;50.004;8.246;2024-01-07T05:21:59;4.30;99.90
10702;DHT22;5402;50.004;8.246;2024-01-07T05:24:28;4.30;99.90
10702;DHT22;5402;50.004;8.246;2024-01-07T05:26:55;4.40;99.90
10702;DHT22;5402;50.004;8.246;2024-01-07T05:29:21;4.40;99.90
10702;DHT22;5402;50.004;8.246;2024-01-07T05:31:48;4.40;99.90
10702;DHT22;5402;50.004;8.246;2024-01-07T05:34:18;4.30;99.90
10702;DHT22;5402;50.004;8.246;2024-01-07T05:36:44;4.30;99.90
10702;DHT22;5402;50.004;8.246;2024-01-07T05:39:11;4.60;99.90
10702;DHT22;5402;50.004;8.246;2024-01-07T05:41:38;4.30;99.90
10702;DHT22;5402;50.004;8.246;2024-01-07T05:44:07;4.40;99.90
10702;DHT22;5402;50.004;8.246;2024-01-07T05:46:34;4.40;99.90
10702;DHT22;5402;50.004;8.246;2024-01-07T05:49:04;4.40;99.90
10702;DHT22;5402;50.004;8.246;2024-01-07T05:51:32;4.40;99.90
10702;DHT22;5402;50.004;8.246;2024-01-07T05:53:59;4.70;99.90
10702;DHT22;5402;50.004;8.246;2024-01-07T05:56:28;4.50;99.90
10702;DHT22;5402;50.004;8.246;2024-01-07T05:58:54;4.60;99.90
10702;DHT22;5402;50.004;8.246;2024-01-07T06:01:23;4.60;99.90
10702;DHT22;5402;50.004;8.246;2024-01-07T06:03:50;4.60;99.90
10702;DHT22;5402;50.004;8.246;2024-01-07T06:06:17;4.90;99.90
10702;DHT22;5402;50.004;8.246;2024-01-07T06:08:47;5.50;99.90
10702;DHT22;5402;50.004;8.246;2024-01-07T06:11:14;4.90;99.90
10702;DHT22;5402;50.004;8.246;2024-01-07T06:13:44;4.80;99.90
10702;DHT22;5402;50.004;8.246;2024-01-07T06:16:11;4.80;99.90
10702;DHT22;5402;50.004;8.246;2024-01-07T06:18:38;4.90;99.90
10702;DHT22;5402;50.004;8.246;2024-01-07T06:21:06;5.00;99.90
10702;DHT22;5402;50.004;8.246;2024-01-07T06:23:33;5.00;99.90
10702;DHT22;5402;50.004;8.246;2024-01-07T06:26:04;4.90;99.90
10702;DHT22;5402;50.004;8.246;2024-01-07T06:28:31;4.90;99.90
10702;DHT22;5402;50.004;8.246;2024-01-07T06:30:58;4.90;99.90
10702;DHT22;5402;50.004;8.246;2024-01-07T06:33:25;4.90;99.90
10702;DHT22;5402;50.004;8.246;2024-01-07T06:35:52;4.90;99.90
10702;DHT22;5402;50.004;8.246;2024-01-07T06:38:21;4.90;99.90
10702;DHT22;5402;50.004;8.246;2024-01-07T06:40:47;4.90;99.90
10702;DHT22;5402;50.004;8.246;2024-01-07T06:43:16;4.80;99.90
10702;DHT22;5402;50.004;8.246;2024-01-07T06:45:43;4.90;99.90
10702;DHT22;5402;50.004;8.246;2024-01-07T06:48:10;4.90;99.90
10702;DHT22;5402;50.004;8.246;2024-01-07T06:50:36;4.90;99.90
10702;DHT22;5402;50.004;8.246;2024-01-07T06:53:04;5.30;99.90
10702;DHT22;5402;50.004;8.246;2024-01-07T06:55:30;5.30;99.90
10702;DHT22;5402;50.004;8.246;2024-01-07T06:57:57;4.90;99.90
10702;DHT22;5402;50.004;8.246;2024-01-07T07:00:27;4.90;99.90
10702;DHT22;5402;50.004;8.246;2024-01-07T07:02:53;4.90;99.90
10702;DHT22;5402;50.004;8.246;2024-01-07T07:05:20;5.00;99.90
10702;DHT22;5402;50.004;8.246;2024-01-07T07:07:47;5.50;99.90
10702;DHT22;5402;50.004;8.246;2024-01-07T07:10:14;4.80;99.90
10702;DHT22;5402;50.004;8.246;2024-01-07T07:12:41;4.70;99.90
10702;DHT22;5402;50.004;8.246;2024-01-07T07:15:08;5.10;99.90
10702;DHT22;5402;50.004;8.246;2024-01-07T07:17:37;4.70;99.90
10702;DHT22;5402;50.004;8.246;2024-01-07T07:20:08;4.60;99.90
10702;DHT22;5402;50.004;8.246;2024-01-07T07:22:34;4.70;99.90
10702;DHT22;5402;50.004;8.246;2024-01-07T07:25:01;4.70;99.90
10702;DHT22;5402;50.004;8.246;2024-01-07T07:27:28;4.70;99.90
10702;DHT22;5402;50.004;8.246;2024-01-07T07:29:55;4.60;99.90
10702;DHT22;5402;50.004;8.246;2024-01-07T07:32:24;4.70;99.90
10702;DHT22;5402;50.004;8.246;2024-01-07T07:34:55;4.80;99.90
10702;DHT22;5402;50.004;8.246;2024-01-07T07:37:24;4.80;99.90
10702;DHT22;5402;50.004;8.246;2024-01-07T07:39:50;4.80;99.90
10702;DHT22;5402;50.004;8.246;2024-01-07T07:42:19;4.80;99.90
10702;DHT22;5402;50.004;8.246;2024-01-07T07:44:46;4.80;99.90
10702;DHT22;5402;50.004;8.246;2024-01-07T07:47:15;4.60;99.90
10702;DHT22;5402;50.004;8.246;2024-01-07T07:49:44;4.90;99.90
10702;DHT22;5402;50.004;8.246;2024-01-07T07:52:12;4.60;99.90
10702;DHT22;5402;50.004;8.246;2024-01-07T07:54:42;5.30;99.90
10702;DHT22;5402;50.004;8.246;2024-01-07T07:57:09;4.60;99.90
10702;DHT22;5402;50.004;8.246;2024-01-07T07:59:35;4.90;99.90
10702;DHT22;5402;50.004;8.246;2024-01-07T08:02:03;5.20;99.90
10702;DHT22;5402;50.004;8.246;2024-01-07T08:04:30;4.70;99.90
10702;DHT22;5402;50.004;8.246;2024-01-07T08:06:57;4.80;99.90
10702;DHT22;5402;50.004;8.246;2024-01-07T08:09:25;4.70;99.90
10702;DHT22;5402;50.004;8.246;2024-01-07T08:11:54;5.00;99.90
10702;DHT22;5402;50.004;8.246;2024-01-07T08:14:21;5.30;99.90
10702;DHT22;5402;50.004;8.246;2024-01-07T08:16:50;5.00;99.90
10702;DHT22;5402;50.004;8.246;2024-01-07T08:19:18;4.80;99.90
10702;DHT22;5402;50.004;8.246;2024-01-07T08:21:45;5.10;99.90
10702;DHT22;5402;50.004;8.246;2024-01-07T08:24:12;4.80;99.90
10702;DHT22;5402;50.004;8.246;2024-01-07T08:26:40;4.80;99.90
10702;DHT22;5402;50.004;8.246;2024-01-07T08:29:09;4.80;99.90
10702;DHT22;5402;50.004;8.246;2024-01-07T08:31:37;5.10;99.90
10702;DHT22;5402;50.004;8.246;2024-01-07T08:34:04;4.80;99.90
10702;DHT22;5402;50.004;8.246;2024-01-07T08:36:30;4.80;99.90
10702;DHT22;5402;50.004;8.246;2024-01-07T08:38:57;4.80;99.90
10702;DHT22;5402;50.004;8.246;2024-01-07T08:41:25;4.80;99.90
10702;DHT22;5402;50.004;8.246;2024-01-07T08:43:54;5.10;99.90
10702;DHT22;5402;50.004;8.246;2024-01-07T08:46:21;4.80;99.90
10702;DHT22;5402;50.004;8.246;2024-01-07T08:48:51;4.50;99.90
10702;DHT22;5402;50.004;8.246;2024-01-07T08:51:23;4.70;99.90
10702;DHT22;5402;50.004;8.246;2024-01-07T08:53:50;4.50;99.90
10702;DHT22;5402;50.004;8.246;2024-01-07T08:56:17;4.80;99.90
10702;DHT22;5402;50.004;8.246;2024-01-07T08:58:46;4.70;99.90
10702;DHT22;5402;50.004;8.246;2024-01-07T09:01:14;4.80;99.90
10702;DHT22;5402;50.004;8.246;2024-01-07T09:03:41;4.80;99.90
10702;DHT22;5402;50.004;8.246;2024-01-07T09:06:08;4.70;99.90
10702;DHT22;5402;50.004;8.246;2024-01-07T09:08:35;4.70;99.90
10702;DHT22;5402;50.004;8.246;2024-01-07T09:11:04;4.40;99.90
10702;DHT22;5402;50.004;8.246;2024-01-07T09:13:33;4.70;99.90
10702;DHT22;5402;50.004;8.246;2024-01-07T09:16:00;4.70;99.90
10702;DHT22;5402;50.004;8.246;2024-01-07T09:18:32;4.70;99.90
10702;DHT22;5402;50.004;8.246;2024-01-07T09:20:59;4.70;99.90
10702;DHT22;5402;50.004;8.246;2024-01-07T09:23:28;4.70;99.90
10702;DHT22;5402;50.004;8.246;2024-01-07T09:25:55;4.60;99.90
10702;DHT22;5402;50.004;8.246;2024-01-07T09:28:23;4.70;99.90
10702;DHT22;5402;50.004;8.246;2024-01-07T09:30:50;4.70;99.90
10702;DHT22;5402;50.004;8.246;2024-01-07T09:33:17;4.70;99.90
10702;DHT22;5402;50.004;8.246;2024-01-07T09:35:46;5.30;99.90
10702;DHT22;5402;50.004;8.246;2024-01-07T09:38:13;5.10;99.90
10702;DHT22;5402;50.004;8.246;2024-01-07T09:40:40;5.00;99.90
10702;DHT22;5402;50.004;8.246;2024-01-07T09:43:07;4.80;99.90
10702;DHT22;5402;50.004;8.246;2024-01-07T09:45:36;4.70;99.90
10702;DHT22;5402;50.004;8.246;2024-01-07T09:48:05;5.00;99.90
10702;DHT22;5402;50.004;8.246;2024-01-07T09:50:32;4.70;99.90
10702;DHT22;5402;50.004;8.246;2024-01-07T09:53:04;4.60;99.90
10702;DHT22;5402;50.004;8.246;2024-01-07T09:55:43;4.70;99.90
10702;DHT22;5402;50.004;8.246;2024-01-07T09:58:17;4.80;99.90
10702;DHT22;5402;50.004;8.246;2024-01-07T10:00:44;5.00;99.90
10702;DHT22;5402;50.004;8.246;2024-01-07T10:03:11;5.00;99.90
10702;DHT22;5402;50.004;8.246;2024-01-07T10:05:39;4.70;99.90
10702;DHT22;5402;50.004;8.246;2024-01-07T10:08:09;4.70;99.90
10702;DHT22;5402;50.004;8.246;2024-01-07T10:10:36;4.70;99.90
10702;DHT22;5402;50.004;8.246;2024-01-07T10:13:06;4.70;99.90
10702;DHT22;5402;50.004;8.246;2024-01-07T10:15:34;4.50;99.90
10702;DHT22;5402;50.004;8.246;2024-01-07T10:18:04;4.80;99.90
10702;DHT22;5402;50.004;8.246;2024-01-07T10:20:32;4.40;99.90
10702;DHT22;5402;50.004;8.246;2024-01-07T10:23:00;4.30;99.90
10702;DHT22;5402;50.004;8.246;2024-01-07T10:25:30;4.30;99.90
10702;DHT22;5402;50.004;8.246;2024-01-07T10:27:59;4.30;99.90
10702;DHT22;5402;50.004;8.246;2024-01-07T10:30:27;4.60;99.90
10702;DHT22;5402;50.004;8.246;2024-01-07T10:32:59;4.10;99.90
10702;DHT22;5402;50.004;8.246;2024-01-07T10:35:32;4.20;99.90
10702;DHT22;5402;50.004;8.246;2024-01-07T10:37:59;4.30;99.90
10702;DHT22;5402;50.004;8.246;2024-01-07T10:40:30;4.30;99.90
10702;DHT22;5402;50.004;8.246;2024-01-07T10:42:58;4.20;99.90
10702;DHT22;5402;50.004;8.246;2024-01-07T10:45:25;5.30;99.90
10702;DHT22;5402;50.004;8.246;2024-01-07T10:47:58;4.20;99.90
10702;DHT22;5402;50.004;8.246;2024-01-07T10:50:26;4.20;99.90
10702;DHT22;5402;50.004;8.246;2024-01-07T10:52:58;4.20;99.90
10702;DHT22;5402;50.004;8.246;2024-01-07T10:55:33;4.20;99.90
10702;DHT22;5402;50.004;8.246;2024-01-07T10:58:03;4.10;99.90
10702;DHT22;5402;50.004;8.246;2024-01-07T11:00:31;4.10;99.90
10702;DHT22;5402;50.004;8.246;2024-01-07T11:03:04;4.50;99.90
10702;DHT22;5402;50.004;8.246;2024-01-07T11:05:43;4.10;99.90
10702;DHT22;5402;50.004;8.246;2024-01-07T11:08:22;4.20;99.90
10702;DHT22;5402;50.004;8.246;2024-01-07T11:10:57;5.30;99.90
10702;DHT22;5402;50.004;8.246;2024-01-07T11:13:34;4.20;99.90
10702;DHT22;5402;50.004;8.246;2024-01-07T11:16:02;4.20;99.90
10702;DHT22;5402;50.004;8.246;2024-01-07T11:18:31;4.00;99.90
10702;DHT22;5402;50.004;8.246;2024-01-07T11:21:00;4.00;99.90
10702;DHT22;5402;50.004;8.246;2024-01-07T11:23:30;4.40;99.90
10702;DHT22;5402;50.004;8.246;2024-01-07T11:26:00;4.10;99.90
10702;DHT22;5402;50.004;8.246;2024-01-07T11:28:46;4.50;99.90
10702;DHT22;5402;50.004;8.246;2024-01-07T11:31:13;4.30;99.90
10702;DHT22;5402;50.004;8.246;2024-01-07T11:33:42;4.00;99.90
10702;DHT22;5402;50.004;8.246;2024-01-07T11:36:16;4.10;99.90
10702;DHT22;5402;50.004;8.246;2024-01-07T11:38:49;4.60;99.90
10702;DHT22;5402;50.004;8.246;2024-01-07T11:41:18;4.30;99.90
10702;DHT22;5402;50.004;8.246;2024-01-07T11:43:54;5.10;99.90
10702;DHT22;5402;50.004;8.246;2024-01-07T11:46:24;4.10;99.90
10702;DHT22;5402;50.004;8.246;2024-01-07T11:48:55;4.00;99.90
10702;DHT22;5402;50.004;8.246;2024-01-07T11:51:24;4.00;99.90
10702;DHT22;5402;50.004;8.246;2024-01-07T11:53:51;4.00;99.90
10702;DHT22;5402;50.004;8.246;2024-01-07T11:56:20;4.20;99.90
10702;DHT22;5402;50.004;8.246;2024-01-07T11:58:47;4.20;99.90
10702;DHT22;5402;50.004;8.246;2024-01-07T12:01:15;4.30;99.90
10702;DHT22;5402;50.004;8.246;2024-01-07T12:03:45;4.20;99.90
10702;DHT22;5402;50.004;8.246;2024-01-07T12:06:23;4.20;99.90
10702;DHT22;5402;50.004;8.246;2024-01-07T12:08:52;4.20;99.90
10702;DHT22;5402;50.004;8.246;2024-01-07T12:11:21;4.20;99.90
10702;DHT22;5402;50.004;8.246;2024-01-07T12:13:49;4.10;99.90
10702;DHT22;5402;50.004;8.246;2024-01-07T12:16:16;4.10;99.90
10702;DHT22;5402;50.004;8.246;2024-01-07T12:18:43;4.30;99.90
10702;DHT22;5402;50.004;8.246;2024-01-07T12:21:10;4.10;99.90
10702;DHT22;5402;50.004;8.246;2024-01-07T12:23:51;4.00;99.90
10702;DHT22;5402;50.004;8.246;2024-01-07T12:26:21;4.00;99.90
10702;DHT22;5402;50.004;8.246;2024-01-07T12:28:58;4.10;99.90
10702;DHT22;5402;50.004;8.246;2024-01-07T12:31:28;4.00;99.90
10702;DHT22;5402;50.004;8.246;2024-01-07T12:33:56;4.20;99.90
10702;DHT22;5402;50.004;8.246;2024-01-07T12:36:24;3.90;99.90
10702;DHT22;5402;50.004;8.246;2024-01-07T12:38:52;3.90;99.90
10702;DHT22;5402;50.004;8.246;2024-01-07T12:41:22;4.10;99.90
10702;DHT22;5402;50.004;8.246;2024-01-07T12:43:51;3.80;99.90
10702;DHT22;5402;50.004;8.246;2024-01-07T12:46:18;3.70;99.90
10702;DHT22;5402;50.004;8.246;2024-01-07T12:48:48;3.60;99.90
10702;DHT22;5402;50.004;8.246;2024-01-07T12:51:15;3.60;99.90
10702;DHT22;5402;50.004;8.246;2024-01-07T12:53:42;3.60;99.90
10702;DHT22;5402;50.004;8.246;2024-01-07T12:56:12;3.70;99.90
10702;DHT22;5402;50.004;8.246;2024-01-07T12:58:40;3.60;99.90
10702;DHT22;5402;50.004;8.246;2024-01-07T13:01:07;3.90;99.90
10702;DHT22;5402;50.004;8.246;2024-01-07T13:03:34;3.50;99.90
10702;DHT22;5402;50.004;8.246;2024-01-07T13:06:06;3.50;99.90
10702;DHT22;5402;50.004;8.246;2024-01-07T13:08:37;3.40;99.90
10702;DHT22;5402;50.004;8.246;2024-01-07T13:11:04;3.60;99.90
10702;DHT22;5402;50.004;8.246;2024-01-07T13:13:34;3.20;99.90
10702;DHT22;5402;50.004;8.246;2024-01-07T13:16:02;3.30;99.90
10702;DHT22;5402;50.004;8.246;2024-01-07T13:18:29;3.30;99.90
10702;DHT22;5402;50.004;8.246;2024-01-07T13:20:56;3.20;99.90
10702;DHT22;5402;50.004;8.246;2024-01-07T13:23:23;3.30;99.90
10702;DHT22;5402;50.004;8.246;2024-01-07T13:25:53;3.70;99.90
10702;DHT22;5402;50.004;8.246;2024-01-07T13:28:22;3.40;99.90
10702;DHT22;5402;50.004;8.246;2024-01-07T13:30:51;3.20;99.90
10702;DHT22;5402;50.004;8.246;2024-01-07T13:33:19;3.10;99.90
10702;DHT22;5402;50.004;8.246;2024-01-07T13:35:49;3.00;99.90
10702;DHT22;5402;50.004;8.246;2024-01-07T13:38:18;3.00;99.90
10702;DHT22;5402;50.004;8.246;2024-01-07T13:40:45;3.00;99.90
10702;DHT22;5402;50.004;8.246;2024-01-07T13:43:12;3.00;99.90
10702;DHT22;5402;50.004;8.246;2024-01-07T13:45:39;2.90;99.90
10702;DHT22;5402;50.004;8.246;2024-01-07T13:48:06;3.20;99.90
10702;DHT22;5402;50.004;8.246;2024-01-07T13:50:35;2.80;99.90
10702;DHT22;5402;50.004;8.246;2024-01-07T13:53:02;2.80;99.90
10702;DHT22;5402;50.004;8.246;2024-01-07T13:55:29;2.90;99.90
10702;DHT22;5402;50.004;8.246;2024-01-07T13:57:56;2.80;99.90
10702;DHT22;5402;50.004;8.246;2024-01-07T14:00:24;2.70;99.90
10702;DHT22;5402;50.004;8.246;2024-01-07T14:02:51;3.40;99.90
10702;DHT22;5402;50.004;8.246;2024-01-07T14:05:18;2.80;99.90
10702;DHT22;5402;50.004;8.246;2024-01-07T14:07:46;3.30;99.90
10702;DHT22;5402;50.004;8.246;2024-01-07T14:10:13;2.70;99.90
10702;DHT22;5402;50.004;8.246;2024-01-07T14:12:39;2.70;99.90
10702;DHT22;5402;50.004;8.246;2024-01-07T14:15:07;2.90;99.90
10702;DHT22;5402;50.004;8.246;2024-01-07T14:17:34;2.70;99.90
10702;DHT22;5402;50.004;8.246;2024-01-07T14:20:01;3.40;99.90
10702;DHT22;5402;50.004;8.246;2024-01-07T14:22:29;2.70;99.90
10702;DHT22;5402;50.004;8.246;2024-01-07T14:24:57;2.80;99.90
10702;DHT22;5402;50.004;8.246;2024-01-07T14:27:24;2.80;99.90
10702;DHT22;5402;50.004;8.246;2024-01-07T14:29:51;3.10;99.90
10702;DHT22;5402;50.004;8.246;2024-01-07T14:32:21;2.50;99.90
10702;DHT22;5402;50.004;8.246;2024-01-07T14:34:49;3.10;99.90
10702;DHT22;5402;50.004;8.246;2024-01-07T14:37:16;2.50;99.90
10702;DHT22;5402;50.004;8.246;2024-01-07T14:39:43;2.50;99.90
10702;DHT22;5402;50.004;8.246;2024-01-07T14:42:12;2.90;99.90
10702;DHT22;5402;50.004;8.246;2024-01-07T14:44:39;2.60;99.90
10702;DHT22;5402;50.004;8.246;2024-01-07T14:47:05;2.50;99.90
10702;DHT22;5402;50.004;8.246;2024-01-07T14:49:33;2.60;99.90
10702;DHT22;5402;50.004;8.246;2024-01-07T14:52:02;2.60;99.90
10702;DHT22;5402;50.004;8.246;2024-01-07T14:54:29;2.90;99.90
10702;DHT22;5402;50.004;8.246;2024-01-07T14:56:58;2.50;99.90
10702;DHT22;5402;50.004;8.246;2024-01-07T14:59:26;2.30;99.90
10702;DHT22;5402;50.004;8.246;2024-01-07T15:01:53;3.00;99.90
10702;DHT22;5402;50.004;8.246;2024-01-07T15:04:20;2.30;99.90
10702;DHT22;5402;50.004;8.246;2024-01-07T15:06:46;2.30;99.90
10702;DHT22;5402;50.004;8.246;2024-01-07T15:09:14;2.40;99.90
10702;DHT22;5402;50.004;8.246;2024-01-07T15:11:43;2.30;99.90
10702;DHT22;5402;50.004;8.246;2024-01-07T15:14:13;2.50;99.90
10702;DHT22;5402;50.004;8.246;2024-01-07T15:16:42;2.20;99.90
10702;DHT22;5402;50.004;8.246;2024-01-07T15:19:08;2.30;99.90
10702;DHT22;5402;50.004;8.246;2024-01-07T15:21:36;2.10;99.90
10702;DHT22;5402;50.004;8.246;2024-01-07T15:24:03;2.40;99.90
10702;DHT22;5402;50.004;8.246;2024-01-07T15:26:32;2.00;99.90
10702;DHT22;5402;50.004;8.246;2024-01-07T15:29:00;2.00;99.90
10702;DHT22;5402;50.004;8.246;2024-01-07T15:31:27;1.90;99.90
10702;DHT22;5402;50.004;8.246;2024-01-07T15:33:58;1.80;99.90
10702;DHT22;5402;50.004;8.246;2024-01-07T15:36:25;1.80;99.90
10702;DHT22;5402;50.004;8.246;2024-01-07T15:38:53;2.40;99.90
10702;DHT22;5402;50.004;8.246;2024-01-07T15:41:20;1.70;99.90
10702;DHT22;5402;50.004;8.246;2024-01-07T15:43:47;1.60;99.90
10702;DHT22;5402;50.004;8.246;2024-01-07T15:46:14;1.70;99.90
10702;DHT22;5402;50.004;8.246;2024-01-07T15:48:45;1.60;99.90
10702;DHT22;5402;50.004;8.246;2024-01-07T15:51:14;2.00;99.90
10702;DHT22;5402;50.004;8.246;2024-01-07T15:53:45;1.50;99.90
10702;DHT22;5402;50.004;8.246;2024-01-07T15:56:12;1.40;99.90
10702;DHT22;5402;50.004;8.246;2024-01-07T15:58:41;1.50;99.90
10702;DHT22;5402;50.004;8.246;2024-01-07T16:01:08;1.50;99.90
10702;DHT22;5402;50.004;8.246;2024-01-07T16:03:35;1.60;99.90
10702;DHT22;5402;50.004;8.246;2024-01-07T16:06:02;1.40;99.90
10702;DHT22;5402;50.004;8.246;2024-01-07T16:08:31;1.40;99.90